Terminal Aerodrome Forecast
Issued by NWS

Home | Current Version | Previous Version | Text Only | Print | Product List | Glossary On
Versions: 1 2 3 4 5 6 7 8 9 10 11 12 13 14 15
344
FTUS42 TJSJ 090536
TAFIST
TAF
TIST 090536Z 0906/1006 09008KT P6SM FEW025 SCT040
     FM091300 12010KT P6SM FEW030 FEW050
     FM092300 09008KT P6SM VCSH SCT025 SCT040=

USA.gov is the U.S. government's official web portal to all federal, state and local government web resources and services.